createdAt,value
2023-02-08T00:00:11.363Z,16.20
2023-02-08T00:02:40.218Z,15.73
2023-02-08T00:05:09.489Z,15.97
2023-02-08T00:07:38.245Z,15.73
2023-02-08T00:10:08.405Z,15.50
2023-02-08T00:12:37.263Z,15.57
2023-02-08T00:15:08.635Z,15.20
2023-02-08T00:17:42.978Z,16.40
2023-02-08T00:20:13.645Z,15.90
2023-02-08T00:22:42.529Z,15.23
2023-02-08T00:25:11.725Z,16.20
2023-02-08T00:27:40.629Z,15.20
2023-02-08T00:30:12.422Z,14.90
2023-02-08T00:32:41.152Z,14.57
2023-02-08T00:35:10.119Z,15.17
2023-02-08T00:37:38.916Z,15.37
2023-02-08T00:40:08.895Z,14.87
2023-02-08T00:42:37.819Z,14.73
2023-02-08T00:45:07.560Z,14.57
2023-02-08T00:47:37.883Z,14.43
2023-02-08T00:50:08.073Z,15.53
2023-02-08T00:52:38.761Z,14.53
2023-02-08T00:55:09.958Z,14.37
2023-02-08T00:57:38.776Z,15.13
2023-02-08T01:00:09.679Z,14.27
2023-02-08T01:02:41.122Z,15.20
2023-02-08T01:05:10.394Z,14.93
2023-02-08T01:07:39.721Z,15.00
2023-02-08T01:10:13.009Z,13.70
2023-02-08T01:12:44.935Z,14.73
2023-02-08T01:15:13.665Z,14.47
2023-02-08T01:17:44.191Z,14.50
2023-02-08T01:20:13.597Z,13.67
2023-02-08T01:22:42.308Z,14.77
2023-02-08T01:25:11.310Z,15.03
2023-02-08T01:27:40.094Z,15.37
2023-02-08T01:30:10.520Z,14.50
2023-02-08T01:32:42.779Z,14.23
2023-02-08T01:35:11.535Z,14.77
2023-02-08T01:37:40.259Z,14.63
2023-02-08T01:40:10.669Z,13.67
2023-02-08T01:42:39.526Z,14.20
2023-02-08T01:45:29.925Z,13.90
2023-02-08T01:48:13.114Z,13.90
2023-02-08T01:50:53.146Z,14.33
2023-02-08T01:53:23.911Z,14.43
2023-02-08T01:55:58.828Z,14.43
2023-02-08T01:58:33.414Z,14.60
2023-02-08T02:01:03.428Z,13.60
2023-02-08T02:03:35.139Z,13.53
2023-02-08T02:06:12.233Z,14.40
2023-02-08T02:08:49.708Z,14.03
2023-02-08T02:11:19.649Z,14.20
2023-02-08T02:13:51.201Z,14.07
2023-02-08T02:16:20.334Z,14.73
2023-02-08T02:18:50.648Z,13.93
2023-02-08T02:21:51.958Z,14.03
2023-02-08T02:25:13.443Z,14.23
2023-02-08T02:28:06.691Z,14.20
2023-02-08T02:31:22.516Z,14.83
2023-02-08T02:34:06.326Z,14.00
2023-02-08T02:36:51.805Z,13.97
2023-02-08T02:39:32.958Z,13.67
2023-02-08T02:42:32.467Z,19.00
2023-02-08T02:45:12.381Z,14.73
2023-02-08T02:47:53.297Z,13.70
2023-02-08T02:50:32.462Z,13.97
2023-02-08T02:53:09.216Z,13.53
2023-02-08T02:55:47.331Z,12.93
2023-02-08T02:58:19.220Z,13.53
2023-02-08T03:00:55.293Z,14.00
2023-02-08T03:03:28.617Z,13.50
2023-02-08T03:06:04.397Z,14.10
2023-02-08T03:09:26.645Z,13.23
2023-02-08T03:12:09.754Z,14.13
2023-02-08T03:14:53.233Z,13.90
2023-02-08T03:17:40.587Z,13.80
2023-02-08T03:20:13.153Z,13.07
2023-02-08T03:22:55.671Z,13.67
2023-02-08T03:25:34.167Z,13.70
2023-02-08T03:28:13.874Z,13.03
2023-02-08T03:31:04.814Z,13.67
2023-02-08T03:33:44.668Z,13.60
2023-02-08T03:36:25.117Z,13.63
2023-02-08T03:38:57.634Z,12.50
2023-02-08T03:41:34.392Z,12.87
2023-02-08T03:44:10.788Z,12.53
2023-02-08T03:46:45.668Z,12.63
2023-02-08T03:49:21.898Z,12.30
2023-02-08T03:51:52.404Z,11.97
2023-02-08T03:54:27.426Z,12.97
2023-02-08T03:57:08.168Z,12.43
2023-02-08T03:59:44.447Z,12.53
2023-02-08T04:02:20.157Z,12.87
2023-02-08T04:04:53.375Z,11.50
2023-02-08T04:07:22.566Z,12.30
2023-02-08T04:09:52.702Z,12.23
2023-02-08T04:12:22.659Z,11.30
2023-02-08T04:14:51.373Z,11.60
2023-02-08T04:17:20.198Z,11.50
2023-02-08T04:19:48.945Z,11.50
2023-02-08T04:22:17.656Z,13.00
2023-02-08T04:24:46.510Z,12.30
2023-02-08T04:27:17.057Z,12.40
2023-02-08T04:29:45.860Z,12.23
2023-02-08T04:32:14.805Z,11.90
2023-02-08T04:34:43.707Z,11.57
2023-02-08T04:37:12.737Z,11.53
2023-02-08T04:39:41.355Z,12.33
2023-02-08T04:42:10.531Z,13.93
2023-02-08T04:44:40.914Z,16.40
2023-02-08T04:47:10.148Z,17.23
2023-02-08T04:49:39.619Z,16.30
2023-02-08T04:52:11.550Z,14.23
2023-02-08T04:54:41.078Z,15.23
2023-02-08T04:57:13.937Z,15.67
2023-02-08T04:59:44.601Z,15.60
2023-02-08T05:02:13.580Z,16.37
2023-02-08T05:04:43.399Z,21.00
2023-02-08T05:07:12.163Z,20.27
2023-02-08T05:09:40.967Z,22.80
2023-02-08T05:12:10.071Z,24.03
2023-02-08T05:14:40.690Z,15.23
2023-02-08T05:17:11.161Z,13.20
2023-02-08T05:19:40.063Z,14.13
2023-02-08T05:22:09.108Z,12.20
2023-02-08T05:24:37.815Z,12.30
2023-02-08T05:27:06.614Z,13.13
2023-02-08T05:29:35.926Z,13.33
2023-02-08T05:32:05.284Z,12.43
2023-02-08T05:34:35.493Z,29.77
2023-02-08T05:37:06.409Z,47.67
2023-02-08T05:39:35.604Z,47.17
2023-02-08T05:42:05.155Z,24.33
2023-02-08T05:44:34.568Z,13.27
2023-02-08T05:47:04.102Z,13.23
2023-02-08T05:49:34.373Z,13.07
2023-02-08T05:52:03.239Z,12.63
2023-02-08T05:54:31.944Z,14.33
2023-02-08T05:57:00.801Z,15.27
2023-02-08T05:59:29.983Z,13.30
2023-02-08T06:01:58.730Z,13.50
2023-02-08T06:05:17.256Z,13.10
2023-02-08T06:07:58.342Z,15.00
2023-02-08T06:10:32.588Z,18.17
2023-02-08T06:13:03.573Z,18.60
2023-02-08T06:15:32.649Z,20.03
2023-02-08T06:18:02.486Z,19.17
2023-02-08T06:20:32.700Z,18.40
2023-02-08T06:23:01.690Z,15.00
2023-02-08T06:25:30.469Z,13.80
2023-02-08T06:28:17.934Z,13.67
2023-02-08T06:31:35.977Z,20.97
2023-02-08T06:34:05.994Z,14.40
2023-02-08T06:36:36.248Z,14.80
2023-02-08T06:39:05.121Z,13.60
2023-02-08T06:41:48.705Z,13.47
2023-02-08T06:44:17.665Z,12.50
2023-02-08T06:46:46.630Z,11.93
2023-02-08T06:49:15.601Z,11.53
2023-02-08T06:51:45.805Z,11.87
2023-02-08T06:54:15.644Z,13.47
2023-02-08T06:56:44.491Z,12.80
2023-02-08T06:59:13.153Z,13.87
2023-02-08T07:01:41.888Z,12.43
2023-02-08T07:04:10.614Z,11.43
2023-02-08T07:06:39.300Z,12.27
2023-02-08T07:09:09.575Z,10.73
2023-02-08T07:11:38.244Z,11.23
2023-02-08T07:14:06.946Z,12.17
2023-02-08T07:16:35.665Z,11.93
2023-02-08T07:19:04.845Z,11.03
2023-02-08T07:21:33.534Z,11.63
2023-02-08T07:24:02.216Z,12.30
2023-02-08T07:26:32.238Z,12.43
2023-02-08T07:29:01.385Z,12.27
2023-02-08T07:31:30.244Z,13.67
2023-02-08T07:34:00.788Z,14.50
2023-02-08T07:36:29.429Z,14.07
2023-02-08T07:38:58.143Z,15.20
2023-02-08T07:41:26.809Z,15.87
2023-02-08T07:43:56.864Z,17.13
2023-02-08T07:46:25.600Z,16.23
2023-02-08T07:48:54.402Z,17.17
2023-02-08T07:51:23.160Z,17.43
2023-02-08T07:53:52.101Z,17.30
2023-02-08T07:56:20.891Z,18.33
2023-02-08T07:58:49.637Z,18.23
2023-02-08T08:01:22.630Z,20.90
2023-02-08T08:03:52.893Z,20.13
2023-02-08T08:06:24.005Z,18.50
2023-02-08T08:08:53.801Z,17.37
2023-02-08T08:11:23.607Z,20.20
2023-02-08T08:13:53.479Z,23.80
2023-02-08T08:16:23.698Z,22.87
2023-02-08T08:18:52.457Z,23.23
2023-02-08T08:21:21.183Z,21.57
2023-02-08T08:23:49.861Z,22.43
2023-02-08T08:26:22.446Z,22.20
2023-02-08T08:28:51.104Z,24.20
2023-02-08T08:31:23.951Z,28.60
2023-02-08T08:33:52.748Z,26.37
2023-02-08T08:36:21.492Z,26.43
2023-02-08T08:38:50.144Z,25.33
2023-02-08T08:41:19.317Z,26.10
2023-02-08T08:43:48.056Z,23.90
2023-02-08T08:46:17.914Z,24.90
2023-02-08T08:48:48.372Z,26.83
2023-02-08T08:51:17.157Z,25.30
2023-02-08T08:53:45.808Z,29.57
2023-02-08T08:56:14.470Z,30.80
2023-02-08T08:58:43.651Z,29.23
2023-02-08T09:01:14.118Z,26.13
2023-02-08T09:03:42.976Z,25.73
2023-02-08T09:06:13.068Z,24.77
2023-02-08T09:08:41.760Z,24.33
2023-02-08T09:11:13.266Z,24.63
2023-02-08T09:13:43.082Z,24.67
2023-02-08T09:16:15.447Z,24.23
2023-02-08T09:18:45.015Z,24.17
2023-02-08T09:21:18.548Z,24.47
2023-02-08T09:23:47.695Z,23.83
2023-02-08T09:26:19.606Z,25.67
2023-02-08T09:28:48.582Z,24.80
2023-02-08T09:31:23.578Z,25.67
2023-02-08T09:33:55.456Z,25.50
2023-02-08T09:36:29.807Z,26.10
2023-02-08T09:39:02.212Z,26.43
2023-02-08T09:41:54.827Z,25.50
2023-02-08T09:44:33.005Z,25.90
2023-02-08T09:47:11.840Z,26.33
2023-02-08T09:49:50.188Z,26.03
2023-02-08T09:52:26.480Z,26.60
2023-02-08T09:55:03.870Z,27.40
2023-02-08T09:57:37.471Z,27.73
2023-02-08T10:00:16.284Z,27.07
2023-02-08T10:02:48.860Z,26.43
2023-02-08T10:05:23.572Z,27.77
2023-02-08T10:07:54.856Z,27.50
2023-02-08T10:10:39.216Z,26.83
2023-02-08T10:13:40.793Z,26.27
2023-02-08T10:16:22.712Z,25.63
2023-02-08T10:19:02.553Z,26.83
2023-02-08T10:21:50.832Z,26.10
2023-02-08T10:25:18.480Z,26.17
2023-02-08T10:28:09.120Z,26.27
2023-02-08T10:30:49.648Z,27.20
2023-02-08T10:33:27.943Z,26.07
2023-02-08T10:35:58.603Z,25.93
2023-02-08T10:38:45.277Z,25.33
2023-02-08T10:41:22.842Z,24.70
2023-02-08T10:44:04.632Z,23.90
2023-02-08T10:46:41.971Z,24.53
2023-02-08T10:49:21.694Z,23.47
2023-02-08T10:51:50.694Z,23.57
2023-02-08T10:54:19.555Z,25.80
2023-02-08T10:56:57.555Z,24.67
2023-02-08T10:59:32.979Z,25.33
2023-02-08T11:02:01.725Z,24.27
2023-02-08T11:04:30.697Z,23.10
2023-02-08T11:06:59.500Z,25.80
2023-02-08T11:09:31.010Z,22.67
2023-02-08T11:12:03.475Z,22.97
2023-02-08T11:14:47.221Z,22.07
2023-02-08T11:17:29.920Z,20.87
2023-02-08T11:20:01.051Z,20.07
2023-02-08T11:22:34.482Z,18.80
2023-02-08T11:25:06.219Z,18.80
2023-02-08T11:27:45.022Z,18.77
2023-02-08T11:30:25.162Z,19.10
2023-02-08T11:33:23.319Z,18.77
2023-02-08T11:36:06.524Z,18.03
2023-02-08T11:38:37.975Z,19.30
2023-02-08T11:41:19.098Z,15.20
2023-02-08T11:44:02.887Z,16.40
2023-02-08T11:46:37.428Z,16.37
2023-02-08T11:49:06.476Z,17.40
2023-02-08T11:51:40.213Z,15.63
2023-02-08T11:54:34.484Z,14.80
2023-02-08T11:57:12.153Z,15.87
2023-02-08T11:59:40.924Z,16.10
2023-02-08T12:02:32.471Z,16.50
2023-02-08T12:05:01.588Z,15.07
2023-02-08T12:07:58.159Z,15.00
2023-02-08T12:10:47.585Z,15.03
2023-02-08T12:13:56.708Z,15.30
2023-02-08T12:16:52.408Z,14.97
2023-02-08T12:20:15.883Z,14.70
2023-02-08T12:22:57.058Z,15.07
2023-02-08T12:25:39.529Z,15.63
2023-02-08T12:28:20.365Z,15.13
2023-02-08T12:31:04.500Z,14.50
2023-02-08T12:33:51.485Z,14.80
2023-02-08T12:36:38.684Z,14.80
2023-02-08T12:39:57.384Z,15.57
2023-02-08T12:42:49.355Z,14.87
2023-02-08T12:46:00.631Z,14.53
2023-02-08T12:48:56.534Z,14.93
2023-02-08T12:51:42.405Z,13.47
2023-02-08T12:54:15.427Z,14.27
2023-02-08T12:57:01.614Z,15.00
2023-02-08T12:59:40.193Z,14.07
2023-02-08T13:02:20.562Z,15.60
2023-02-08T13:04:55.131Z,14.47
2023-02-08T13:07:32.858Z,15.13
2023-02-08T13:10:13.358Z,15.80
2023-02-08T13:12:53.305Z,15.97
2023-02-08T13:15:31.020Z,15.20
2023-02-08T13:18:06.895Z,14.47
2023-02-08T13:20:44.818Z,15.00
2023-02-08T13:23:27.275Z,15.77
2023-02-08T13:26:02.067Z,14.47
2023-02-08T13:28:31.183Z,14.43
2023-02-08T13:31:08.738Z,15.57
2023-02-08T13:34:00.792Z,14.33
2023-02-08T13:36:36.007Z,14.57
2023-02-08T13:39:24.126Z,13.50
2023-02-08T13:41:56.707Z,15.13
2023-02-08T13:44:33.975Z,14.40
2023-02-08T13:47:04.412Z,14.37
2023-02-08T13:50:00.974Z,14.57
2023-02-08T13:52:51.084Z,14.03
2023-02-08T13:55:57.404Z,13.00
2023-02-08T13:59:06.890Z,13.43
2023-02-08T14:01:37.862Z,13.73
2023-02-08T14:04:35.146Z,14.07
2023-02-08T14:07:32.943Z,14.17
2023-02-08T14:10:32.014Z,14.03
2023-02-08T14:13:09.697Z,14.83
2023-02-08T14:15:41.098Z,14.03
2023-02-08T14:18:28.299Z,14.10
2023-02-08T14:21:04.537Z,14.93
2023-02-08T14:23:40.216Z,14.63
2023-02-08T14:26:24.222Z,14.03
2023-02-08T14:29:00.262Z,14.30
2023-02-08T14:31:43.526Z,14.03
2023-02-08T14:34:34.885Z,13.03
2023-02-08T14:37:27.676Z,12.87
2023-02-08T14:40:48.684Z,12.50
2023-02-08T14:43:34.386Z,11.80
2023-02-08T14:46:46.220Z,11.63
2023-02-08T14:49:19.270Z,12.27
2023-02-08T14:51:56.275Z,12.57
2023-02-08T14:54:33.880Z,12.20
2023-02-08T14:57:14.968Z,11.77
2023-02-08T14:59:45.461Z,12.10
2023-02-08T15:02:23.509Z,11.93
2023-02-08T15:04:52.624Z,11.70
2023-02-08T15:07:36.357Z,10.73
2023-02-08T15:10:07.750Z,11.77
2023-02-08T15:12:41.195Z,11.60
2023-02-08T15:15:27.487Z,11.17
2023-02-08T15:18:02.363Z,11.10
2023-02-08T15:20:37.792Z,10.83
2023-02-08T15:23:20.578Z,10.53
2023-02-08T15:25:59.049Z,10.73
2023-02-08T15:28:30.933Z,13.50
2023-02-08T15:31:06.004Z,13.07
2023-02-08T15:34:03.363Z,13.33
2023-02-08T15:36:35.454Z,15.40
2023-02-08T15:39:12.726Z,17.77
2023-02-08T15:41:41.497Z,13.33
2023-02-08T15:44:20.150Z,13.90
2023-02-08T15:49:28.024Z,14.00
2023-02-08T15:51:58.172Z,12.70
2023-02-08T15:54:27.707Z,13.13
2023-02-08T15:57:01.008Z,11.63
2023-02-08T15:59:36.404Z,13.03
2023-02-08T16:02:23.018Z,13.93
2023-02-08T16:04:53.449Z,13.30
2023-02-08T16:07:29.630Z,13.17
2023-02-08T16:09:59.970Z,12.90
2023-02-08T16:12:31.434Z,13.37
2023-02-08T16:15:00.181Z,13.33
2023-02-08T16:17:43.154Z,13.33
2023-02-08T16:20:33.349Z,12.67
2023-02-08T16:23:05.062Z,13.70
2023-02-08T16:25:44.229Z,13.63
2023-02-08T16:28:29.134Z,15.00
2023-02-08T16:31:01.522Z,13.53
2023-02-08T16:33:32.503Z,15.23
2023-02-08T16:36:02.903Z,15.57
2023-02-08T16:38:34.949Z,13.93
2023-02-08T16:41:13.203Z,15.83
2023-02-08T16:43:44.944Z,16.60
2023-02-08T16:46:26.844Z,16.40
2023-02-08T16:48:58.069Z,16.33
2023-02-08T16:51:31.770Z,17.83
2023-02-08T17:01:58.523Z,17.43
2023-02-08T17:04:29.331Z,17.83
2023-02-08T17:06:59.477Z,18.20
2023-02-08T17:09:28.188Z,17.83
2023-02-08T17:11:56.935Z,18.27
2023-02-08T17:14:25.616Z,20.00
2023-02-08T17:16:54.328Z,20.07
2023-02-08T17:19:25.252Z,16.33
2023-02-08T17:21:55.058Z,17.90
2023-02-08T17:24:24.170Z,18.00
2023-02-08T17:26:52.852Z,17.93
2023-02-08T17:29:21.630Z,17.93
2023-02-08T17:31:50.825Z,17.87
2023-02-08T17:34:19.681Z,18.23
2023-02-08T17:36:49.937Z,18.03
2023-02-08T17:39:20.895Z,19.60
2023-02-08T17:41:49.934Z,20.57
2023-02-08T17:44:19.173Z,20.17
2023-02-08T17:46:52.771Z,18.70
2023-02-08T17:49:22.426Z,20.23
2023-02-08T17:51:52.624Z,19.03
2023-02-08T17:54:21.793Z,18.80
2023-02-08T17:56:56.662Z,20.33
2023-02-08T17:59:25.888Z,18.63
2023-02-08T18:01:55.405Z,19.13
2023-02-08T18:04:26.646Z,20.00
2023-02-08T18:06:57.434Z,18.63
2023-02-08T18:09:26.494Z,20.17
2023-02-08T18:11:55.239Z,19.70
2023-02-08T18:14:24.664Z,18.37
2023-02-08T18:16:53.879Z,18.93
2023-02-08T18:19:24.655Z,19.13
2023-02-08T18:21:53.771Z,17.87
2023-02-08T18:24:24.179Z,21.17
2023-02-08T18:26:53.569Z,21.73
2023-02-08T18:29:25.811Z,22.57
2023-02-08T18:31:54.841Z,22.23
2023-02-08T18:34:24.107Z,23.50
2023-02-08T18:36:54.276Z,23.40
2023-02-08T18:39:24.932Z,24.07
2023-02-08T18:41:55.577Z,23.57
2023-02-08T18:44:28.553Z,24.33
2023-02-08T18:46:58.722Z,23.70
2023-02-08T18:49:30.699Z,21.93
2023-02-08T18:52:09.117Z,22.93
2023-02-08T18:54:41.571Z,28.53
2023-02-08T18:57:11.507Z,25.23
2023-02-08T18:59:41.182Z,24.13
2023-02-08T19:02:26.486Z,23.90
2023-02-08T19:04:55.630Z,24.17
2023-02-08T19:07:24.713Z,22.03
2023-02-08T19:09:55.631Z,22.77
2023-02-08T19:12:24.617Z,28.07
2023-02-08T19:14:53.487Z,24.93
2023-02-08T19:17:22.726Z,23.70
2023-02-08T19:19:52.252Z,24.40
2023-02-08T19:22:23.359Z,24.10
2023-02-08T19:24:53.594Z,22.10
2023-02-08T19:27:24.209Z,21.70
2023-02-08T19:29:56.473Z,20.03
2023-02-08T19:32:25.860Z,18.87
2023-02-08T19:34:58.550Z,18.77
2023-02-08T19:37:28.103Z,18.83
2023-02-08T19:39:57.738Z,19.57
2023-02-08T19:42:30.437Z,18.63
2023-02-08T19:45:00.962Z,19.10
2023-02-08T19:47:50.263Z,19.27
2023-02-08T19:50:21.977Z,19.73
2023-02-08T19:52:51.804Z,18.80
2023-02-08T19:55:23.723Z,19.40
2023-02-08T19:57:54.595Z,18.40
2023-02-08T20:00:43.368Z,18.70
2023-02-08T20:03:21.442Z,21.03
2023-02-08T20:05:57.054Z,18.70
2023-02-08T20:08:27.474Z,21.13
2023-02-08T20:10:57.406Z,22.53
2023-02-08T20:13:28.246Z,21.97
2023-02-08T20:16:01.153Z,19.80
2023-02-08T20:18:31.580Z,19.60
2023-02-08T20:21:06.130Z,19.50
2023-02-08T20:23:35.729Z,19.30
2023-02-08T20:26:10.246Z,22.47
2023-02-08T20:28:46.982Z,21.43
2023-02-08T20:31:19.680Z,22.33
2023-02-08T20:33:50.314Z,21.07
2023-02-08T20:36:25.929Z,20.00
2023-02-08T20:38:58.373Z,20.47
2023-02-08T20:41:33.286Z,19.77
2023-02-08T20:44:04.107Z,19.47
2023-02-08T20:46:36.956Z,18.70
2023-02-08T20:49:08.363Z,18.67
2023-02-08T20:51:37.563Z,20.43
2023-02-08T20:54:06.681Z,22.70
2023-02-08T20:56:38.230Z,23.83
2023-02-08T20:59:13.758Z,22.00
2023-02-08T21:01:43.997Z,20.53
2023-02-08T21:04:13.213Z,23.67
2023-02-08T21:06:46.063Z,23.93
2023-02-08T21:09:20.337Z,24.83
2023-02-08T21:11:50.320Z,26.30
2023-02-08T21:14:23.720Z,25.30
2023-02-08T21:16:56.072Z,24.60
2023-02-08T21:19:26.287Z,24.63
2023-02-08T21:21:58.124Z,22.47
2023-02-08T21:24:28.756Z,21.63
2023-02-08T21:26:58.491Z,20.60
2023-02-08T21:29:29.667Z,19.90
2023-02-08T21:31:58.813Z,20.27
2023-02-08T21:34:27.887Z,22.40
2023-02-08T21:36:56.650Z,20.83
2023-02-08T21:39:25.500Z,22.30
2023-02-08T21:41:55.528Z,20.67
2023-02-08T21:44:24.527Z,22.40
2023-02-08T21:46:54.672Z,21.10
2023-02-08T21:49:40.928Z,21.17
2023-02-08T21:52:28.232Z,22.47
2023-02-08T21:54:57.017Z,22.20
2023-02-08T21:57:28.901Z,22.70
2023-02-08T22:00:01.354Z,21.63
2023-02-08T22:02:32.080Z,20.70
2023-02-08T22:05:03.119Z,21.57
2023-02-08T22:07:42.288Z,22.27
2023-02-08T22:10:14.431Z,21.47
2023-02-08T22:12:43.210Z,20.60
2023-02-08T22:15:14.983Z,21.00
2023-02-08T22:17:45.291Z,21.43
2023-02-08T22:20:15.884Z,22.13
2023-02-08T22:22:45.730Z,21.53
2023-02-08T22:25:14.935Z,22.70
2023-02-08T22:27:43.635Z,22.93
2023-02-08T22:30:16.668Z,25.47
2023-02-08T22:32:50.320Z,22.40
2023-02-08T22:35:21.249Z,21.50
2023-02-08T22:37:50.132Z,22.80
2023-02-08T22:40:19.047Z,22.27
2023-02-08T22:42:47.881Z,21.13
2023-02-08T22:45:16.587Z,20.97
2023-02-08T22:47:46.156Z,20.13
2023-02-08T22:50:16.723Z,19.57
2023-02-08T22:52:45.422Z,18.30
2023-02-08T22:55:14.090Z,15.80
2023-02-08T22:57:43.639Z,15.63
2023-02-08T23:00:17.137Z,15.60
2023-02-08T23:02:46.025Z,16.57
2023-02-08T23:05:16.112Z,14.37
2023-02-08T23:07:44.842Z,13.80
2023-02-08T23:10:14.051Z,12.23
2023-02-08T23:12:42.709Z,8.87
2023-02-08T23:15:12.811Z,8.67
2023-02-08T23:17:41.537Z,7.70
2023-02-08T23:20:11.639Z,7.50
2023-02-08T23:22:42.308Z,6.83
2023-02-08T23:25:11.348Z,5.73
2023-02-08T23:27:40.127Z,6.10
2023-02-08T23:30:10.451Z,5.17
2023-02-08T23:32:39.363Z,5.50
2023-02-08T23:35:10.676Z,5.00
2023-02-08T23:37:41.037Z,5.00
2023-02-08T23:40:11.875Z,5.23
2023-02-08T23:42:40.656Z,5.13
2023-02-08T23:45:10.813Z,4.77
2023-02-08T23:47:40.401Z,4.70
2023-02-08T23:50:11.020Z,5.10
2023-02-08T23:52:41.057Z,5.00
2023-02-08T23:55:10.180Z,5.13
2023-02-08T23:57:39.800Z,4.67
